Hauptseite
METAR-TAF:

METAR-TAF

Flughäfen :

Flughafen N’Djamena

N’Djamena, Tschad

Breite: 12-08N, Länge: 015-02E, Höhe: 295 m

Beobachtung

Neuester Wetterbericht von vor 1 Stunde und 6 Minuten, um 00:00 UTC
Windstille
Temperatur 22°C
Luftfeuchtigkeit 57%
Luftdruck 1007 hPa
Sichtweite 10 km oder mehr
keine Wolken unter 1500 m und keine Kumulonimbus oder Gewitterwolken

METAR: FTTJ 190000Z 00000KT CAVOK 22/13 Q1007 NOSIG

Zeit: 02:06 (01:06 UTC)

Prognose

Neuester Wetterbericht von vor 2 Stunden und 6 Minuten, um 23:00 UTC
Gültige Prognose vom 19 um 00 UTC bis 20 um 06 UTC
Wind 6 kt aus Ost
Sichtweite: 6000 m

TAF: FTTJ 182300Z 1900/2006 08006KT 6000 NSC

Wetterbeobachtungen und Prognosen von mehr als 4000 Flughäfen (METAR und TAF Bericht).

Die verfügbaren Stationen werden durch gelbe und rote Markierungen auf der Karte dargestellt.

Führen Sie die Maus auf sie, um den Namen der Station zu sehen.

Darauf klicken, um die Beobachtung von Wetterbeobachtungen und Prognosen zu sehen.

Um die Karte zu ändern : klicken Sie auf den grünen Tasten mit einem schwarzen Kreuz Zum Vergrößern, auf den grünen Button mit einem Gedankenstrich zu verkleinern, oder auf die grünen Pfeile für benachbarte Karten.


METAR-TAF: